Caribbean Princess — ZCDG8 — position and weather

sailwx.info

Track history (hours):
 
Tides and Currents Weather Stations Pressure Air Temp Water Temp Dewpoint Dewpoint Depression Visibility Wind Speed Wind Dir Waves Ship Positions

Caribbean Princess

Operator: Princess Cruises

Last reported at 2018-Jan-22 12:00 UTC. Time now 2018-Jan-23 19:32 UTC.
Position N 11°24' W 064°18'.

Type: Passenger vessel. MMSI: 310423000.

Wind from 110 at 15 knots

Barometer 1014.0 mb
Air temperature 24.8 ° C
Visibility: greater than 10.8 NM
Dewpoint 22.4 ° C
Water temperature 30.0 ° C

Date/timePositionNaut miles runAvg speedWind from/ knotsBaromVisibWave heightAir tempDewpointWater temp
2018-Jan-22 12:00N 11°24' W 064°18'255 7.1 110 / 151014.010.8 24.822.430.0
2018-Jan-21 00:00N 12°30' W 060°06'103 4.6 070 / 201014.710.8 26.622.330.0
2018-Jan-20 01:40N 14°07' W 060°43'210.8
2018-Jan-20 01:26N 14°08' W 060°45'510.8
2018-Jan-20 01:00N 14°10' W 060°50'510.9
2018-Jan-20 00:30N 14°13' W 060°55'510.5
2018-Jan-20 00:00N 14°15' W 060°59'510.4
2018-Jan-19 23:30N 14°17' W 061°04'510.5
2018-Jan-19 23:00N 14°20' W 061°09'510.8
2018-Jan-19 22:30N 14°25' W 061°10'9 8.8
2018-Jan-19 21:27N 14°34' W 061°08'4 8.3
2018-Jan-19 21:00N 14°36' W 061°05'0 0.1
2018-Jan-19 15:15N 14°36' W 061°04'0 0.0
2018-Jan-19 14:58N 14°36' W 061°04'0 0.0
2018-Jan-19 14:30N 14°36' W 061°04'0 0.0
2018-Jan-19 13:51N 14°36' W 061°04'0 0.0
2018-Jan-19 13:27N 14°36' W 061°04'0 0.0
2018-Jan-19 12:55N 14°36' W 061°04'0 0.0
2018-Jan-19 12:25N 14°36' W 061°04'0 0.0
2018-Jan-19 11:20N 14°36' W 061°04'0 0.1
2018-Jan-19 10:59N 14°36' W 061°04'2 3.3
2018-Jan-19 10:30N 14°36' W 061°06'612.3
2018-Jan-19 10:00N 14°37' W 061°12'11713.6
2018-Jan-19 01:25N 16°16' W 062°17'2 5.5
2018-Jan-19 01:00N 16°18' W 062°18'44009.5 080 / 231015.410.8 26.622.030.0
2018-Jan-19 00:59N 16°22' W 062°21'715.3
2018-Jan-19 00:30N 16°28' W 062°25'714.8
2018-Jan-19 00:00N 16°34' W 062°29'714.5
2018-Jan-18 23:30N 16°41' W 062°32'60 2.8
2018-Jan-18 02:00N 17°30' W 063°07'1412.1
2018-Jan-18 00:51N 17°44' W 063°06'  
2018-Jan-15 14:00N 22°00' W 071°36'5518.5 110 / 191018.510.8 26.322.629.0
2018-Jan-15 11:00N 22°24' W 072°30'   100 / 211015.910.8 25.723.228.0
Track history (hours):
 
Tides and Currents Weather Stations Pressure Air Temp Water Temp Dewpoint Dewpoint Depression Visibility Wind Speed Wind Dir Waves Ship Positions

Caribbean Princess

Operator: Princess Cruises

Last reported at 2018-Jan-22 12:00 UTC. Time now 2018-Jan-23 19:32 UTC.
Position N 11°24' W 064°18'.

Type: Passenger vessel. MMSI: 310423000.

Wind from 110 at 15 knots

Barometer 1014.0 mb
Air temperature 24.8 ° C
Visibility: greater than 10.8 NM
Dewpoint 22.4 ° C
Water temperature 30.0 ° C

Date/timePositionNaut miles runAvg speedWind from/ knotsBaromVisibWave heightAir tempDewpointWater temp
2018-Jan-22 12:00N 11°24' W 064°18'255 7.1 110 / 151014.010.8 24.822.430.0
2018-Jan-21 00:00N 12°30' W 060°06'103 4.6 070 / 201014.710.8 26.622.330.0
2018-Jan-20 01:40N 14°07' W 060°43'210.8
2018-Jan-20 01:26N 14°08' W 060°45'510.8
2018-Jan-20 01:00N 14°10' W 060°50'510.9
2018-Jan-20 00:30N 14°13' W 060°55'510.5
2018-Jan-20 00:00N 14°15' W 060°59'510.4
2018-Jan-19 23:30N 14°17' W 061°04'510.5
2018-Jan-19 23:00N 14°20' W 061°09'510.8
2018-Jan-19 22:30N 14°25' W 061°10'9 8.8
2018-Jan-19 21:27N 14°34' W 061°08'4 8.3
2018-Jan-19 21:00N 14°36' W 061°05'0 0.1
2018-Jan-19 15:15N 14°36' W 061°04'0 0.0
2018-Jan-19 14:58N 14°36' W 061°04'0 0.0
2018-Jan-19 14:30N 14°36' W 061°04'0 0.0
2018-Jan-19 13:51N 14°36' W 061°04'0 0.0
2018-Jan-19 13:27N 14°36' W 061°04'0 0.0
2018-Jan-19 12:55N 14°36' W 061°04'0 0.0
2018-Jan-19 12:25N 14°36' W 061°04'0 0.0
2018-Jan-19 11:20N 14°36' W 061°04'0 0.1
2018-Jan-19 10:59N 14°36' W 061°04'2 3.3
2018-Jan-19 10:30N 14°36' W 061°06'612.3
2018-Jan-19 10:00N 14°37' W 061°12'11713.6
2018-Jan-19 01:25N 16°16' W 062°17'2 5.5
2018-Jan-19 01:00N 16°18' W 062°18'44009.5 080 / 231015.410.8 26.622.030.0
2018-Jan-19 00:59N 16°22' W 062°21'715.3
2018-Jan-19 00:30N 16°28' W 062°25'714.8
2018-Jan-19 00:00N 16°34' W 062°29'714.5
2018-Jan-18 23:30N 16°41' W 062°32'60 2.8
2018-Jan-18 02:00N 17°30' W 063°07'1412.1
2018-Jan-18 00:51N 17°44' W 063°06'  
2018-Jan-15 14:00N 22°00' W 071°36'5518.5 110 / 191018.510.8 26.322.629.0
2018-Jan-15 11:00N 22°24' W 072°30'   100 / 211015.910.8 25.723.228.0

Dump ship's entire track history